createdAt,value
2022-11-16T00:01:45.845Z,9.86
2022-11-16T00:04:16.300Z,9.85
2022-11-16T00:06:46.910Z,9.84
2022-11-16T00:09:23.595Z,9.82
2022-11-16T00:11:55.787Z,9.81
2022-11-16T00:14:28.563Z,9.80
2022-11-16T00:16:59.705Z,9.80
2022-11-16T00:19:30.674Z,9.80
2022-11-16T00:22:01.659Z,9.81
2022-11-16T00:24:32.070Z,9.83
2022-11-16T00:27:03.040Z,9.85
2022-11-16T00:29:33.521Z,9.87
2022-11-16T00:32:04.613Z,9.88
2022-11-16T00:34:35.468Z,9.89
2022-11-16T00:37:05.807Z,9.91
2022-11-16T00:39:36.395Z,9.91
2022-11-16T00:42:06.821Z,9.90
2022-11-16T00:44:37.911Z,9.88
2022-11-16T00:47:08.843Z,9.86
2022-11-16T00:49:39.474Z,9.85
2022-11-16T00:52:10.007Z,9.84
2022-11-16T00:54:40.486Z,9.85
2022-11-16T00:57:10.932Z,9.85
2022-11-16T00:59:41.356Z,9.86
2022-11-16T01:02:11.753Z,9.86
2022-11-16T01:04:42.524Z,9.84
2022-11-16T01:07:12.922Z,9.81
2022-11-16T01:09:43.804Z,9.77
2022-11-16T01:12:14.416Z,9.74
2022-11-16T01:14:47.790Z,9.72
2022-11-16T01:17:18.180Z,9.72
2022-11-16T01:19:48.710Z,9.72
2022-11-16T01:22:19.122Z,9.72
2022-11-16T01:24:50.063Z,9.72
2022-11-16T01:27:20.624Z,9.73
2022-11-16T01:29:51.425Z,9.75
2022-11-16T01:32:22.013Z,9.76
2022-11-16T01:34:52.587Z,9.77
2022-11-16T01:37:23.395Z,9.77
2022-11-16T01:39:53.989Z,9.77
2022-11-16T01:42:26.218Z,9.77
2022-11-16T01:45:03.516Z,9.77
2022-11-16T01:47:34.425Z,9.76
2022-11-16T01:50:12.083Z,9.75
2022-11-16T01:52:48.916Z,9.73
2022-11-16T01:55:19.658Z,9.73
2022-11-16T01:57:50.993Z,9.73
2022-11-16T02:00:22.011Z,9.72
2022-11-16T02:02:52.709Z,9.71
2022-11-16T02:05:30.972Z,9.71
2022-11-16T02:08:38.468Z,9.71
2022-11-16T02:11:18.838Z,9.69
2022-11-16T02:14:00.923Z,9.66
2022-11-16T02:16:40.283Z,9.65
2022-11-16T02:19:40.720Z,9.64
2022-11-16T02:22:24.020Z,9.63
2022-11-16T02:25:03.872Z,9.62
2022-11-16T02:27:53.777Z,9.61
2022-11-16T02:30:24.922Z,9.60
2022-11-16T02:33:02.480Z,9.59
2022-11-16T02:35:37.628Z,9.59
2022-11-16T02:38:12.163Z,9.57
2022-11-16T02:40:48.745Z,9.57
2022-11-16T02:43:36.138Z,9.57
2022-11-16T02:46:10.080Z,9.55
2022-11-16T02:48:45.381Z,9.55
2022-11-16T02:51:17.044Z,9.54
2022-11-16T02:54:00.585Z,9.52
2022-11-16T02:56:31.334Z,9.50
2022-11-16T02:59:02.145Z,9.48
2022-11-16T03:01:38.123Z,9.46
2022-11-16T03:04:15.388Z,9.44
2022-11-16T03:06:47.978Z,9.42
2022-11-16T03:09:23.154Z,9.40
2022-11-16T03:12:00.931Z,9.38
2022-11-16T03:14:37.816Z,9.36
2022-11-16T03:17:14.158Z,9.34
2022-11-16T03:19:50.337Z,9.30
2022-11-16T03:22:25.776Z,9.28
2022-11-16T03:24:56.840Z,9.26
2022-11-16T03:27:36.324Z,9.26
2022-11-16T03:30:09.973Z,9.25
2022-11-16T03:32:46.735Z,9.23
2022-11-16T03:35:22.505Z,9.22
2022-11-16T03:37:57.313Z,9.22
2022-11-16T03:40:31.748Z,9.21
2022-11-16T03:43:04.114Z,9.21
2022-11-16T03:45:35.453Z,9.21
2022-11-16T03:48:07.259Z,9.19
2022-11-16T03:50:38.055Z,9.18
2022-11-16T03:53:08.861Z,9.16
2022-11-16T03:55:39.808Z,9.12
2022-11-16T03:58:10.447Z,9.10
2022-11-16T04:00:41.202Z,9.08
2022-11-16T04:03:12.116Z,9.07
2022-11-16T04:06:00.456Z,9.07
2022-11-16T04:08:48.446Z,9.05
2022-11-16T04:11:40.491Z,9.06
2022-11-16T04:14:33.675Z,9.08
2022-11-16T04:17:21.964Z,9.10
2022-11-16T04:20:10.121Z,9.13
2022-11-16T04:23:10.143Z,9.17
2022-11-16T04:25:45.044Z,9.18
2022-11-16T04:28:17.197Z,9.18
2022-11-16T04:31:08.323Z,9.15
2022-11-16T04:33:56.811Z,9.17
2022-11-16T04:36:45.171Z,9.15
2022-11-16T04:39:16.047Z,9.11
2022-11-16T04:42:03.820Z,9.08
2022-11-16T04:44:48.926Z,9.04
2022-11-16T04:47:19.579Z,8.99
2022-11-16T04:49:49.938Z,8.99
2022-11-16T04:52:20.292Z,8.95
2022-11-16T04:54:50.657Z,8.92
2022-11-16T04:57:21.011Z,8.89
2022-11-16T04:59:51.311Z,8.85
2022-11-16T05:02:22.428Z,8.81
2022-11-16T05:04:52.823Z,8.78
2022-11-16T05:07:23.939Z,8.75
2022-11-16T05:09:54.724Z,8.74
2022-11-16T05:12:26.757Z,8.72
2022-11-16T05:14:58.384Z,8.68
2022-11-16T05:17:29.761Z,8.66
2022-11-16T05:20:17.928Z,8.63
2022-11-16T05:22:55.158Z,8.62
2022-11-16T05:25:25.754Z,8.61
2022-11-16T05:27:56.536Z,8.59
2022-11-16T05:30:28.678Z,8.57
2022-11-16T05:32:59.398Z,8.57
2022-11-16T05:35:30.058Z,8.56
2022-11-16T05:38:01.002Z,8.56
2022-11-16T05:40:32.880Z,8.56
2022-11-16T05:43:03.525Z,8.55
2022-11-16T05:45:34.277Z,8.52
2022-11-16T05:48:04.825Z,8.49
2022-11-16T05:50:41.311Z,8.45
2022-11-16T05:53:13.121Z,8.45
2022-11-16T05:55:43.648Z,8.45
2022-11-16T05:58:14.464Z,8.44
2022-11-16T06:00:46.842Z,8.43
2022-11-16T06:03:17.622Z,8.41
2022-11-16T06:05:48.192Z,8.39
2022-11-16T06:08:18.608Z,8.40
2022-11-16T06:10:49.353Z,8.40
2022-11-16T06:13:20.078Z,8.36
2022-11-16T06:15:50.518Z,8.33
2022-11-16T06:18:21.415Z,8.31
2022-11-16T06:20:52.011Z,8.31
2022-11-16T06:23:23.013Z,8.31
2022-11-16T06:25:57.120Z,8.30
2022-11-16T06:28:28.768Z,8.30
2022-11-16T06:30:59.226Z,8.27
2022-11-16T06:33:33.526Z,8.24
2022-11-16T06:36:05.604Z,8.19
2022-11-16T06:38:36.298Z,8.14
2022-11-16T06:41:07.160Z,8.09
2022-11-16T06:43:37.515Z,8.06
2022-11-16T06:46:08.164Z,8.00
2022-11-16T06:48:38.575Z,7.97
2022-11-16T06:51:09.901Z,7.95
2022-11-16T06:53:40.541Z,7.90
2022-11-16T06:56:14.507Z,7.88
2022-11-16T06:58:44.966Z,7.88
2022-11-16T07:01:15.780Z,7.89
2022-11-16T07:03:46.366Z,7.89
2022-11-16T07:06:17.167Z,7.89
2022-11-16T07:08:47.630Z,7.90
2022-11-16T07:11:18.466Z,7.91
2022-11-16T07:13:49.460Z,7.92
2022-11-16T07:16:19.876Z,7.96
2022-11-16T07:18:50.662Z,7.97
2022-11-16T07:21:21.709Z,7.96
2022-11-16T07:23:52.496Z,7.94
2022-11-16T07:26:22.853Z,7.93
2022-11-16T07:28:53.332Z,7.93
2022-11-16T07:31:24.132Z,7.92
2022-11-16T07:33:55.550Z,7.91
2022-11-16T07:36:25.958Z,7.91
2022-11-16T07:38:57.007Z,7.90
2022-11-16T07:41:27.518Z,7.89
2022-11-16T07:43:58.011Z,7.88
2022-11-16T07:46:45.885Z,7.88
2022-11-16T07:49:20.058Z,7.86
2022-11-16T07:51:50.979Z,7.86
2022-11-16T07:54:21.523Z,7.82
2022-11-16T07:56:54.718Z,7.81
2022-11-16T07:59:25.725Z,7.81
2022-11-16T08:01:56.636Z,7.84
2022-11-16T08:04:27.403Z,7.87
2022-11-16T08:06:58.167Z,7.89
2022-11-16T08:09:28.629Z,7.90
2022-11-16T08:11:59.050Z,7.92
2022-11-16T08:14:29.441Z,7.94
2022-11-16T08:17:00.360Z,7.92
2022-11-16T08:19:31.355Z,7.88
2022-11-16T08:22:01.794Z,7.85
2022-11-16T08:24:32.185Z,7.85
2022-11-16T08:27:02.574Z,7.86
2022-11-16T08:29:33.461Z,7.84
2022-11-16T08:32:04.073Z,7.88
2022-11-16T08:34:35.863Z,7.90
2022-11-16T08:37:06.644Z,7.93
2022-11-16T08:39:37.077Z,7.96
2022-11-16T08:42:07.666Z,7.97
2022-11-16T08:44:38.421Z,7.99
2022-11-16T08:47:08.970Z,7.98
2022-11-16T08:49:41.985Z,8.00
2022-11-16T08:52:15.956Z,8.03
2022-11-16T08:54:47.176Z,8.04
2022-11-16T08:57:18.225Z,8.05
2022-11-16T08:59:49.485Z,8.06
2022-11-16T09:02:25.439Z,8.06
2022-11-16T09:04:56.127Z,8.06
2022-11-16T09:07:26.666Z,8.07
2022-11-16T09:09:57.471Z,8.09
2022-11-16T09:12:28.205Z,8.11
2022-11-16T09:14:58.910Z,8.11
2022-11-16T09:17:29.346Z,8.11
2022-11-16T09:19:59.922Z,8.16
2022-11-16T09:22:30.358Z,8.15
2022-11-16T09:25:00.773Z,8.14
2022-11-16T09:27:31.263Z,8.10
2022-11-16T09:30:02.267Z,8.08
2022-11-16T09:32:32.659Z,8.08
2022-11-16T09:35:03.062Z,8.07
2022-11-16T09:37:33.785Z,8.08
2022-11-16T09:40:04.523Z,8.10
2022-11-16T09:42:53.601Z,8.11
2022-11-16T09:45:32.273Z,8.13
2022-11-16T09:48:07.350Z,8.15
2022-11-16T09:50:47.078Z,8.12
2022-11-16T09:53:33.438Z,8.12
2022-11-16T09:56:08.165Z,8.15
2022-11-16T09:58:44.985Z,8.17
2022-11-16T10:01:24.766Z,8.18
2022-11-16T10:04:01.388Z,8.20
2022-11-16T10:06:42.966Z,8.22
2022-11-16T10:09:14.866Z,8.23
2022-11-16T10:12:12.041Z,8.24
2022-11-16T10:15:12.922Z,8.27
2022-11-16T10:18:00.189Z,8.27
2022-11-16T10:20:50.048Z,8.27
2022-11-16T10:23:34.114Z,8.26
2022-11-16T10:26:16.795Z,8.28
2022-11-16T10:29:00.637Z,8.29
2022-11-16T10:31:41.488Z,8.31
2022-11-16T10:34:20.652Z,8.33
2022-11-16T10:36:51.014Z,8.37
2022-11-16T10:39:23.275Z,8.39
2022-11-16T10:41:54.169Z,8.43
2022-11-16T10:44:34.149Z,8.47
2022-11-16T10:47:07.115Z,8.47
2022-11-16T10:49:42.980Z,8.46
2022-11-16T10:52:13.414Z,8.46
2022-11-16T10:54:44.522Z,8.46
2022-11-16T10:57:15.306Z,8.47
2022-11-16T10:59:47.410Z,8.42
2022-11-16T11:02:35.729Z,8.40
2022-11-16T11:05:17.360Z,8.40
2022-11-16T11:07:54.156Z,8.38
2022-11-16T11:10:32.830Z,8.34
2022-11-16T11:13:18.982Z,8.33
2022-11-16T11:15:51.335Z,8.35
2022-11-16T11:18:29.953Z,8.37
2022-11-16T11:21:19.113Z,8.38
2022-11-16T11:23:51.550Z,8.38
2022-11-16T11:26:37.128Z,8.37
2022-11-16T11:29:21.732Z,8.36
2022-11-16T11:31:54.194Z,8.35
2022-11-16T11:34:27.826Z,8.34
2022-11-16T11:37:02.730Z,8.32
2022-11-16T11:39:35.522Z,8.31
2022-11-16T11:42:23.979Z,8.31
2022-11-16T11:44:58.700Z,8.32
2022-11-16T11:47:57.490Z,8.32
2022-11-16T11:50:38.088Z,8.31
2022-11-16T11:53:16.839Z,8.29
2022-11-16T11:55:47.286Z,8.26
2022-11-16T11:58:21.939Z,8.23
2022-11-16T12:01:07.812Z,8.22
2022-11-16T12:04:13.191Z,8.20
2022-11-16T12:06:49.621Z,8.17
2022-11-16T12:09:36.789Z,8.13
2022-11-16T12:12:24.711Z,8.12
2022-11-16T12:15:27.415Z,8.08
2022-11-16T12:18:08.999Z,8.04
2022-11-16T12:20:50.256Z,8.05
2022-11-16T12:23:45.192Z,8.07
2022-11-16T12:26:29.309Z,8.03
2022-11-16T12:29:13.900Z,8.01
2022-11-16T12:32:02.159Z,8.00
2022-11-16T12:34:46.282Z,8.02
2022-11-16T12:37:22.370Z,8.06
2022-11-16T12:40:18.312Z,8.09
2022-11-16T12:42:59.682Z,8.12
2022-11-16T12:45:45.889Z,8.15
2022-11-16T12:48:38.945Z,8.17
2022-11-16T12:51:19.537Z,8.16
2022-11-16T12:54:09.821Z,8.12
2022-11-16T12:56:49.759Z,8.10
2022-11-16T12:59:45.814Z,8.08
2022-11-16T13:02:27.680Z,8.06
2022-11-16T13:05:04.007Z,8.03
2022-11-16T13:07:42.134Z,7.98
2022-11-16T13:10:19.557Z,7.94
2022-11-16T13:13:09.099Z,7.91
2022-11-16T13:15:47.792Z,7.89
2022-11-16T13:18:22.544Z,7.86
2022-11-16T13:20:59.865Z,7.82
2022-11-16T13:23:42.079Z,7.79
2022-11-16T13:26:20.409Z,7.77
2022-11-16T13:28:58.030Z,7.74
2022-11-16T13:31:34.870Z,7.73
2022-11-16T13:34:14.540Z,7.74
2022-11-16T13:36:47.740Z,7.75
2022-11-16T13:39:22.957Z,7.75
2022-11-16T13:42:08.693Z,7.72
2022-11-16T13:44:39.792Z,7.69
2022-11-16T13:47:24.728Z,7.68
2022-11-16T13:49:59.554Z,7.69
2022-11-16T13:55:39.629Z,7.73
2022-11-16T13:58:13.971Z,7.74
2022-11-16T14:00:55.342Z,7.76
2022-11-16T14:03:38.617Z,7.78
2022-11-16T14:06:46.585Z,7.79
2022-11-16T14:09:47.428Z,7.78
2022-11-16T14:12:52.756Z,7.76
2022-11-16T14:15:25.491Z,7.74
2022-11-16T14:17:59.982Z,7.73
2022-11-16T14:20:50.339Z,7.74
2022-11-16T14:23:36.057Z,7.75
2022-11-16T14:26:19.773Z,7.76
2022-11-16T14:29:08.360Z,7.78
2022-11-16T14:31:53.271Z,7.77
2022-11-16T14:34:29.156Z,7.77
2022-11-16T14:37:00.604Z,7.79
2022-11-16T14:39:34.217Z,7.79
2022-11-16T14:42:08.020Z,7.77
2022-11-16T14:44:41.426Z,7.78
2022-11-16T14:47:23.903Z,7.78
2022-11-16T14:49:55.200Z,7.78
2022-11-16T14:52:36.256Z,7.77
2022-11-16T14:55:09.551Z,7.77
2022-11-16T14:57:39.972Z,7.74
2022-11-16T15:00:18.997Z,7.72
2022-11-16T15:02:54.380Z,7.70
2022-11-16T15:05:33.778Z,7.70
2022-11-16T15:08:09.061Z,7.71
2022-11-16T15:10:48.152Z,7.69
2022-11-16T15:13:25.133Z,7.68
2022-11-16T15:16:16.728Z,7.70
2022-11-16T15:19:00.496Z,7.67
2022-11-16T15:21:31.429Z,7.67
2022-11-16T15:24:28.701Z,7.68
2022-11-16T15:26:52.889Z,7.70
2022-11-16T15:29:25.431Z,7.71
2022-11-16T15:31:55.818Z,7.72
2022-11-16T15:34:26.672Z,7.74
2022-11-16T15:36:57.064Z,7.74
2022-11-16T15:39:33.828Z,7.72
2022-11-16T15:42:05.268Z,7.69
2022-11-16T15:44:36.280Z,7.68
2022-11-16T15:47:06.812Z,7.66
2022-11-16T15:49:39.506Z,7.65
2022-11-16T15:52:10.645Z,7.63
2022-11-16T15:54:58.717Z,7.64
2022-11-16T15:57:29.562Z,7.65
2022-11-16T16:00:00.533Z,7.65
2022-11-16T16:02:33.223Z,7.65
2022-11-16T16:05:03.989Z,7.65
2022-11-16T16:07:42.785Z,7.65
2022-11-16T16:10:25.731Z,7.62
2022-11-16T16:12:57.571Z,7.62
2022-11-16T16:15:30.841Z,7.63
2022-11-16T16:18:02.076Z,7.64
2022-11-16T16:20:34.837Z,7.65
2022-11-16T16:23:15.802Z,7.65
2022-11-16T16:25:50.478Z,7.64
2022-11-16T16:28:21.550Z,7.63
2022-11-16T16:30:54.872Z,7.64
2022-11-16T16:33:28.614Z,7.63
2022-11-16T16:35:59.098Z,7.63
2022-11-16T16:38:30.421Z,7.64
2022-11-16T16:41:03.652Z,7.65
2022-11-16T16:43:34.907Z,7.64
2022-11-16T16:46:06.733Z,7.62
2022-11-16T16:48:43.298Z,7.59
2022-11-16T16:51:14.203Z,7.53
2022-11-16T16:53:45.270Z,7.49
2022-11-16T16:56:19.649Z,7.48
2022-11-16T16:58:50.445Z,7.47
2022-11-16T17:01:21.181Z,7.45
2022-11-16T17:03:51.647Z,7.42
2022-11-16T17:06:22.140Z,7.41
2022-11-16T17:08:53.205Z,7.39
2022-11-16T17:11:23.963Z,7.38
2022-11-16T17:13:54.729Z,7.38
2022-11-16T17:16:25.365Z,7.38
2022-11-16T17:18:57.916Z,7.35
2022-11-16T17:21:28.473Z,7.34
2022-11-16T17:23:59.096Z,7.34
2022-11-16T17:26:30.204Z,7.34
2022-11-16T17:29:01.076Z,7.36
2022-11-16T17:31:31.440Z,7.36
2022-11-16T17:34:02.235Z,7.37
2022-11-16T17:36:33.636Z,7.38
2022-11-16T17:39:04.778Z,7.38
2022-11-16T17:41:35.775Z,7.37
2022-11-16T17:44:07.320Z,7.38
2022-11-16T17:46:37.946Z,7.41
2022-11-16T17:49:09.311Z,7.41
2022-11-16T17:51:39.822Z,7.40
2022-11-16T17:54:10.389Z,7.38
2022-11-16T17:56:41.409Z,7.37
2022-11-16T17:59:11.990Z,7.35
2022-11-16T18:01:42.507Z,7.33
2022-11-16T18:04:13.393Z,7.30
2022-11-16T18:06:44.103Z,7.29
2022-11-16T18:09:14.819Z,7.29
2022-11-16T18:11:45.592Z,7.27
2022-11-16T18:14:16.236Z,7.25
2022-11-16T18:16:48.084Z,7.20
2022-11-16T18:19:20.147Z,7.17
2022-11-16T18:21:50.634Z,7.14
2022-11-16T18:24:21.210Z,7.10
2022-11-16T18:26:52.237Z,7.07
2022-11-16T18:29:22.634Z,7.04
2022-11-16T18:31:53.731Z,7.03
2022-11-16T18:34:24.267Z,7.03
2022-11-16T18:36:56.208Z,7.04
2022-11-16T18:39:26.788Z,7.04
2022-11-16T18:41:57.655Z,7.00
2022-11-16T18:44:28.525Z,6.99
2022-11-16T18:46:58.856Z,6.96
2022-11-16T18:49:29.334Z,6.92
2022-11-16T18:52:00.062Z,6.90
2022-11-16T18:54:30.750Z,6.86
2022-11-16T18:57:01.258Z,6.85
2022-11-16T18:59:31.662Z,6.83
2022-11-16T19:02:02.038Z,6.83
2022-11-16T19:04:32.456Z,6.83
2022-11-16T19:07:03.716Z,6.81
2022-11-16T19:09:34.545Z,6.79
2022-11-16T19:12:05.415Z,6.78
2022-11-16T19:14:35.868Z,6.79
2022-11-16T19:17:06.217Z,6.77
2022-11-16T19:19:36.661Z,6.75
2022-11-16T19:22:07.366Z,6.71
2022-11-16T19:24:37.722Z,6.69
2022-11-16T19:27:08.455Z,6.65
2022-11-16T19:29:38.883Z,6.63
2022-11-16T19:32:09.690Z,6.64
2022-11-16T19:34:40.158Z,6.67
2022-11-16T19:37:11.703Z,6.69
2022-11-16T19:39:42.994Z,6.69
2022-11-16T19:42:13.383Z,6.67
2022-11-16T19:44:43.796Z,6.63
2022-11-16T19:47:14.283Z,6.59
2022-11-16T19:49:46.160Z,6.56
2022-11-16T19:52:16.510Z,6.55
2022-11-16T19:54:47.194Z,6.54
2022-11-16T19:57:20.480Z,6.52
2022-11-16T19:59:51.212Z,6.51
2022-11-16T20:02:21.628Z,6.50
2022-11-16T20:04:53.360Z,6.52
2022-11-16T20:07:23.865Z,6.50
2022-11-16T20:09:55.123Z,6.46
2022-11-16T20:12:25.581Z,6.44
2022-11-16T20:14:56.797Z,6.41
2022-11-16T20:17:27.256Z,6.40
2022-11-16T20:19:57.826Z,6.39
2022-11-16T20:22:28.613Z,6.35
2022-11-16T20:24:59.562Z,6.33
2022-11-16T20:27:30.364Z,6.34
2022-11-16T20:30:06.461Z,6.34
2022-11-16T20:32:40.277Z,6.37
2022-11-16T20:35:16.177Z,6.40
2022-11-16T20:37:49.998Z,6.37
2022-11-16T20:40:24.409Z,6.37
2022-11-16T20:42:59.093Z,6.35
2022-11-16T20:45:32.797Z,6.36
2022-11-16T20:48:04.267Z,6.35
2022-11-16T20:50:35.339Z,6.34
2022-11-16T20:53:06.534Z,6.34
2022-11-16T20:55:37.833Z,6.34
2022-11-16T20:58:08.557Z,6.36
2022-11-16T21:00:44.891Z,6.37
2022-11-16T21:03:18.487Z,6.38
2022-11-16T21:05:53.467Z,6.40
2022-11-16T21:08:30.535Z,6.42
2022-11-16T21:11:02.325Z,6.42
2022-11-16T21:13:52.948Z,6.40
2022-11-16T21:16:24.580Z,6.40
2022-11-16T21:18:57.160Z,6.39
2022-11-16T21:21:31.615Z,6.37
2022-11-16T21:24:03.514Z,6.35
2022-11-16T21:26:37.648Z,6.32
2022-11-16T21:29:09.768Z,6.31
2022-11-16T21:31:46.411Z,6.32
2022-11-16T21:34:20.399Z,6.33
2022-11-16T21:36:54.130Z,6.33
2022-11-16T21:39:27.447Z,6.33
2022-11-16T21:41:59.882Z,6.35
2022-11-16T21:44:42.132Z,6.35
2022-11-16T21:47:14.254Z,6.36
2022-11-16T21:50:08.604Z,6.38
2022-11-16T21:52:38.215Z,6.39
2022-11-16T21:55:11.253Z,6.39
2022-11-16T21:57:42.473Z,6.40
2022-11-16T22:00:16.133Z,6.41
2022-11-16T22:02:48.409Z,6.39
2022-11-16T22:05:38.033Z,6.38
2022-11-16T22:08:13.058Z,6.37
2022-11-16T22:10:44.602Z,6.35
2022-11-16T22:13:15.305Z,6.33
2022-11-16T22:15:46.351Z,6.32
2022-11-16T22:18:16.743Z,6.28
2022-11-16T22:20:50.329Z,6.30
2022-11-16T22:23:24.429Z,6.31
2022-11-16T22:25:55.083Z,6.33
2022-11-16T22:28:25.837Z,6.33
2022-11-16T22:31:03.379Z,6.33
2022-11-16T22:33:35.397Z,6.34
2022-11-16T22:36:08.290Z,6.32
2022-11-16T22:38:38.914Z,6.30
2022-11-16T22:41:09.947Z,6.26
2022-11-16T22:43:40.778Z,6.25
2022-11-16T22:46:12.031Z,6.24
2022-11-16T22:48:43.704Z,6.24
2022-11-16T22:51:21.218Z,6.24
2022-11-16T22:53:55.227Z,6.23
2022-11-16T22:56:26.364Z,6.22
2022-11-16T22:58:57.695Z,6.22
2022-11-16T23:01:28.429Z,6.22
2022-11-16T23:03:59.693Z,6.21
2022-11-16T23:06:30.681Z,6.17
2022-11-16T23:09:01.657Z,6.17
2022-11-16T23:11:49.907Z,6.16
2022-11-16T23:14:38.137Z,6.15
2022-11-16T23:17:08.624Z,6.15
2022-11-16T23:19:57.341Z,6.15
2022-11-16T23:22:45.462Z,6.16
2022-11-16T23:25:33.657Z,6.16
2022-11-16T23:28:07.887Z,6.14
2022-11-16T23:30:39.791Z,6.14
2022-11-16T23:33:10.730Z,6.14
2022-11-16T23:35:41.126Z,6.13
2022-11-16T23:38:11.927Z,6.12
2022-11-16T23:40:42.864Z,6.12
2022-11-16T23:43:31.122Z,6.11
2022-11-16T23:46:02.017Z,6.10
2022-11-16T23:48:33.390Z,6.11
2022-11-16T23:51:03.883Z,6.10
2022-11-16T23:53:34.904Z,6.09
2022-11-16T23:56:06.413Z,6.09
2022-11-16T23:58:37.538Z,6.09
